createdAt,value
2022-08-24T00:00:46.206Z,8.18
2022-08-24T00:05:48.542Z,7.75
2022-08-24T00:10:50.564Z,7.70
2022-08-24T00:15:52.526Z,8.05
2022-08-24T00:20:54.843Z,8.80
2022-08-24T00:25:57.749Z,8.38
2022-08-24T00:31:00.374Z,9.63
2022-08-24T00:36:02.729Z,7.85
2022-08-24T00:41:06.937Z,8.43
2022-08-24T00:46:38.327Z,7.72
2022-08-24T00:51:47.608Z,7.50
2022-08-24T00:56:57.332Z,7.45
2022-08-24T01:02:06.286Z,6.78
2022-08-24T01:07:17.293Z,6.68
2022-08-24T01:12:19.946Z,7.18
2022-08-24T01:17:41.309Z,6.15
2022-08-24T01:22:56.721Z,6.50
2022-08-24T01:28:05.550Z,6.40
2022-08-24T01:33:10.394Z,6.07
2022-08-24T01:38:12.450Z,6.88
2022-08-24T01:43:15.244Z,5.38
2022-08-24T01:48:23.053Z,5.72
2022-08-24T01:53:27.538Z,6.37
2022-08-24T01:58:29.553Z,5.53
2022-08-24T02:03:31.452Z,5.97
2022-08-24T02:08:36.642Z,6.07
2022-08-24T02:13:40.575Z,5.93
2022-08-24T02:18:42.667Z,5.90
2022-08-24T02:23:44.732Z,6.38
2022-08-24T02:28:46.768Z,5.53
2022-08-24T02:33:49.048Z,5.80
2022-08-24T02:38:51.274Z,6.60
2022-08-24T02:43:57.054Z,5.82
2022-08-24T02:49:11.065Z,6.20
2022-08-24T02:54:18.633Z,6.10
2022-08-24T02:59:23.579Z,6.15
2022-08-24T03:04:26.266Z,6.88
2022-08-24T03:09:28.871Z,6.95
2022-08-24T03:14:32.316Z,6.80
2022-08-24T03:19:34.423Z,7.05
2022-08-24T03:24:36.358Z,6.78
2022-08-24T03:29:38.364Z,6.55
2022-08-24T03:34:41.564Z,7.20
2022-08-24T03:39:43.668Z,6.82
2022-08-24T03:44:46.335Z,7.65
2022-08-24T03:49:50.653Z,7.18
2022-08-24T03:54:52.838Z,7.22
2022-08-24T03:59:56.090Z,9.32
2022-08-24T04:04:58.267Z,9.90
2022-08-24T04:10:01.631Z,9.23
2022-08-24T04:15:05.245Z,8.88
2022-08-24T04:20:08.973Z,9.32
2022-08-24T04:25:14.017Z,9.10
2022-08-24T04:30:16.003Z,8.82
2022-08-24T04:35:39.201Z,7.32
2022-08-24T04:40:42.903Z,7.63
2022-08-24T04:45:51.060Z,7.90
2022-08-24T04:50:54.956Z,8.02
2022-08-24T04:55:57.822Z,7.18
2022-08-24T05:01:00.216Z,7.95
2022-08-24T05:06:02.356Z,8.00
2022-08-24T05:11:08.385Z,7.15
2022-08-24T05:16:13.891Z,6.68
2022-08-24T05:21:19.414Z,6.28
2022-08-24T05:26:26.421Z,6.75
2022-08-24T05:31:32.028Z,7.10
2022-08-24T05:36:39.929Z,7.10
2022-08-24T05:41:46.589Z,10.07
2022-08-24T05:46:58.324Z,9.68
2022-08-24T05:52:00.682Z,8.35
2022-08-24T05:57:05.144Z,7.07
2022-08-24T06:02:33.836Z,6.68
2022-08-24T06:07:36.260Z,7.40
2022-08-24T06:12:38.788Z,7.20
2022-08-24T06:17:41.559Z,7.50
2022-08-24T06:22:44.601Z,7.13
2022-08-24T06:27:47.016Z,6.35
2022-08-24T06:32:49.026Z,7.00
2022-08-24T06:38:19.567Z,7.63
2022-08-24T06:43:26.470Z,7.70
2022-08-24T06:48:30.566Z,7.28
2022-08-24T06:53:32.551Z,8.07
2022-08-24T06:58:36.002Z,7.05
2022-08-24T07:03:42.318Z,6.90
2022-08-24T07:09:03.609Z,5.95
2022-08-24T07:14:06.878Z,7.80
2022-08-24T07:19:09.544Z,7.05
2022-08-24T07:24:11.517Z,7.60
2022-08-24T07:29:44.038Z,7.22
2022-08-24T07:34:39.617Z,7.30
2022-08-24T07:39:43.071Z,8.20
2022-08-24T07:44:45.904Z,7.47
2022-08-24T07:49:49.390Z,8.45
2022-08-24T07:54:51.770Z,8.50
2022-08-24T07:59:54.213Z,7.85
2022-08-24T08:04:56.815Z,8.38
2022-08-24T08:10:02.668Z,9.73
2022-08-24T08:15:08.981Z,8.55
2022-08-24T08:20:13.360Z,9.48
2022-08-24T08:25:19.535Z,10.25
2022-08-24T08:30:21.758Z,9.10
2022-08-24T08:35:23.918Z,8.80
2022-08-24T08:41:04.642Z,9.32
2022-08-24T08:46:40.778Z,8.30
2022-08-24T08:51:51.683Z,10.15
2022-08-24T08:57:06.495Z,8.40
2022-08-24T09:02:33.704Z,8.82
2022-08-24T09:07:56.277Z,9.07
2022-08-24T09:13:23.802Z,8.43
2022-08-24T19:20:03.956Z,10.27
2022-08-24T19:25:07.038Z,9.93
2022-08-24T19:30:09.917Z,10.13
2022-08-24T19:35:14.844Z,9.45
2022-08-24T19:40:17.922Z,9.63
2022-08-24T19:45:45.154Z,9.70
2022-08-24T19:50:47.033Z,9.48
2022-08-24T19:55:50.362Z,8.68
2022-08-24T20:01:01.815Z,8.73
2022-08-24T20:06:03.931Z,9.18
2022-08-24T20:11:07.814Z,9.55
2022-08-24T20:16:14.444Z,9.05
2022-08-24T20:21:17.427Z,9.77
2022-08-24T20:26:19.372Z,11.38
2022-08-24T20:31:28.029Z,10.27
2022-08-24T20:36:36.519Z,10.90
2022-08-24T20:41:40.367Z,10.48
2022-08-24T20:46:42.867Z,11.07
2022-08-24T20:51:49.383Z,11.07
2022-08-24T20:56:51.752Z,10.63
2022-08-24T21:01:56.016Z,9.98
2022-08-24T21:06:58.255Z,10.57
2022-08-24T21:12:01.091Z,10.93
2022-08-24T21:17:06.243Z,11.68
2022-08-24T21:22:08.906Z,10.30
2022-08-24T21:27:10.918Z,10.10
2022-08-24T21:32:31.703Z,9.43
2022-08-24T21:42:35.801Z,9.35
2022-08-24T21:47:39.474Z,8.60
2022-08-24T21:52:41.724Z,9.43
2022-08-24T21:57:43.889Z,9.07
2022-08-24T22:02:47.531Z,9.15
2022-08-24T22:07:49.536Z,9.90
2022-08-24T22:12:52.030Z,8.85
2022-08-24T22:17:55.438Z,10.90
2022-08-24T22:22:58.859Z,9.52
2022-08-24T22:28:00.939Z,10.13
2022-08-24T22:33:02.877Z,9.10
2022-08-24T22:38:05.937Z,9.43
2022-08-24T22:43:07.834Z,9.48
2022-08-24T22:48:09.747Z,9.85
2022-08-24T22:53:11.625Z,9.32
2022-08-24T22:58:13.507Z,9.73
2022-08-24T23:03:15.449Z,8.98
2022-08-24T23:08:17.350Z,9.57
2022-08-24T23:13:20.875Z,9.05
2022-08-24T23:18:46.482Z,9.05
2022-08-24T23:28:52.463Z,10.32
2022-08-24T23:33:54.373Z,9.93
2022-08-24T23:38:58.238Z,10.35
2022-08-24T23:44:02.253Z,11.35
2022-08-24T23:49:05.084Z,10.68
2022-08-24T23:54:09.065Z,9.85
2022-08-24T23:59:14.710Z,10.15
